Time;durP1;ratioP1;P1;durP2;ratioP2;P2;SDS_P1;SDS_P2;PMS_P1;PMS_P2;Temp;Humidity;BMP_temperature;BMP_pressure;BME280_temperature;BME280_humidity;BME280_pressure;Samples;Min_cycle;Max_cycle;Signal;HPM_P1;HPM_P2
2021/12/16 00:30:26;;;;;;;8.10;3.60;;;14.50;99.90;;;;;;4964859;28;20043;-65
2021/12/16 00:35:37;;;;;;;7.35;3.40;;;14.70;99.90;;;;;;4991656;28;20492;-65
2021/12/16 00:38:03;;;;;;;6.80;3.70;;;14.60;99.90;;;;;;4986209;28;20038;-65
2021/12/16 00:40:29;;;;;;;8.75;3.30;;;14.40;99.90;;;;;;4977301;28;20613;-65
2021/12/16 00:43:00;;;;;;;9.63;3.95;;;14.50;99.90;;;;;;4971262;28;20508;-65
2021/12/16 00:45:56;;;;;;;8.98;3.90;;;14.50;99.90;;;;;;5027892;28;20110;-65
2021/12/16 00:55:58;;;;;;;8.27;4.20;;;14.50;99.90;;;;;;5053162;28;20091;-64
2021/12/16 00:58:28;;;;;;;7.18;4.13;;;14.90;99.90;;;;;;5052644;28;20048;-65
2021/12/16 01:01:09;;;;;;;10.65;4.10;;;14.60;99.90;;;;;;5052602;28;20099;-66
2021/12/16 01:03:44;;;;;;;9.55;4.13;;;14.70;99.90;;;;;;5050199;28;20041;-65
2021/12/16 01:06:30;;;;;;;7.53;3.53;;;14.20;99.90;;;;;;5053074;28;20501;-65
2021/12/16 01:42:30;;;;;;;8.45;4.10;;;14.40;99.90;;;;;;5028137;28;20053;-64
2021/12/16 01:50:10;;;;;;;10.55;4.40;;;14.30;99.90;;;;;;5030847;28;20088;-65
2021/12/16 01:55:11;;;;;;;7.65;4.05;;;14.80;99.90;;;;;;5044879;28;20053;-65
2021/12/16 01:57:47;;;;;;;11.07;4.53;;;14.70;99.90;;;;;;5050280;28;20084;-65
2021/12/16 02:00:31;;;;;;;8.20;3.83;;;14.50;99.90;;;;;;5050394;28;20071;-65
2021/12/16 02:03:03;;;;;;;10.35;4.03;;;14.70;99.90;;;;;;5050330;28;20041;-65
2021/12/16 02:10:40;;;;;;;9.38;4.18;;;14.60;99.90;;;;;;5073852;28;20052;-66
2021/12/16 02:32:12;;;;;;;8.88;4.03;;;;;;;;;;5075727;28;20505;-64
2021/12/16 02:35:12;;;;;;;10.52;4.15;;;;;;;;;;5076303;28;20431;-65
2021/12/16 02:37:45;;;;;;;11.23;4.32;;;;;;;;;;5070339;28;20047;-65
2021/12/16 02:40:11;;;;;;;9.02;4.65;;;14.50;99.90;;;;;;5044897;28;20546;-65
2021/12/16 02:42:50;;;;;;;9.48;3.70;;;14.40;99.90;;;;;;5075915;28;20398;-65
2021/12/16 02:50:45;;;;;;;10.57;4.05;;;14.30;99.90;;;;;;5065245;28;20052;-65
2021/12/16 02:53:11;;;;;;;8.80;4.03;;;14.50;99.90;;;;;;5075814;28;20060;-66
2021/12/16 02:55:37;;;;;;;8.65;3.60;;;14.40;99.90;;;;;;5075326;28;20464;-65
2021/12/16 02:58:02;;;;;;;9.43;4.03;;;14.10;99.90;;;;;;5075943;28;20044;-65
2021/12/16 03:00:30;;;;;;;9.43;4.00;;;14.70;99.90;;;;;;5074955;28;20048;-65
2021/12/16 03:02:55;;;;;;;10.07;4.88;;;14.60;99.90;;;;;;5074850;28;20482;-64
2021/12/16 03:05:22;;;;;;;9.38;3.50;;;14.30;99.90;;;;;;5075139;28;20075;-65
2021/12/16 03:07:49;;;;;;;8.88;4.15;;;14.50;99.90;;;;;;5074755;28;20045;-65
2021/12/16 03:20:41;;;;;;;8.52;3.60;;;14.60;99.90;;;;;;5056995;28;20051;-65
2021/12/16 03:23:39;;;;;;;7.80;4.40;;;14.70;99.90;;;;;;5074790;28;20067;-65
2021/12/16 03:37:11;;;;;;;10.85;4.28;;;14.60;99.90;;;;;;5032555;28;20053;-65
2021/12/16 03:39:37;;;;;;;8.52;3.83;;;;;;;;;;5033060;28;20045;-65
2021/12/16 03:42:03;;;;;;;13.85;4.70;;;;;;;;;;5031679;28;20132;-65
2021/12/16 03:44:38;;;;;;;8.27;3.95;;;14.40;99.90;;;;;;5033088;28;20053;-65
2021/12/16 03:47:04;;;;;;;9.70;4.38;;;14.60;99.90;;;;;;5015075;28;20050;-64
2021/12/16 03:49:30;;;;;;;7.35;4.00;;;14.50;99.90;;;;;;5013162;28;20527;-60
2021/12/16 03:51:59;;;;;;;8.85;4.38;;;14.60;99.90;;;;;;5027316;28;20056;-62
2021/12/16 03:54:31;;;;;;;9.25;3.75;;;14.60;99.90;;;;;;5031844;28;20512;-61
2021/12/16 03:56:58;;;;;;;9.10;4.07;;;14.30;99.90;;;;;;5032524;28;20045;-61
2021/12/16 03:59:25;;;;;;;9.23;4.20;;;14.50;99.90;;;;;;5032180;28;20045;-61
2021/12/16 04:01:52;;;;;;;6.85;3.30;;;14.50;99.90;;;;;;5032396;28;20498;-61
2021/12/16 04:04:18;;;;;;;9.65;3.88;;;14.40;99.90;;;;;;5032334;28;20057;-61
2021/12/16 04:06:44;;;;;;;12.88;4.22;;;14.50;99.90;;;;;;5008155;28;20088;-61
2021/12/16 04:09:11;;;;;;;9.85;4.07;;;14.70;99.90;;;;;;5034033;28;20052;-61
2021/12/16 04:11:41;;;;;;;11.43;4.13;;;14.50;99.90;;;;;;5073994;28;20513;-62
2021/12/16 04:14:12;;;;;;;9.32;4.97;;;14.60;99.90;;;;;;5073545;28;20068;-62
2021/12/16 04:16:41;;;;;;;9.52;4.15;;;;;;;;;;5055996;28;20049;-61
2021/12/16 04:19:10;;;;;;;8.23;3.83;;;14.60;99.90;;;;;;5073131;28;20475;-62
2021/12/16 04:21:45;;;;;;;7.57;3.58;;;14.40;99.90;;;;;;5072399;28;20119;-62
2021/12/16 04:24:11;;;;;;;9.27;4.65;;;14.40;99.90;;;;;;5073295;28;20040;-61
2021/12/16 04:26:37;;;;;;;11.65;4.20;;;14.40;99.90;;;;;;5073505;28;20048;-62
2021/12/16 04:29:04;;;;;;;9.10;4.20;;;14.50;99.90;;;;;;5073267;28;20056;-61
2021/12/16 04:31:31;;;;;;;7.50;3.88;;;14.10;99.90;;;;;;5073726;28;20402;-62
2021/12/16 04:33:57;;;;;;;8.68;4.07;;;;;;;;;;5073005;28;20087;-61
2021/12/16 04:36:23;;;;;;;8.25;3.90;;;14.30;99.90;;;;;;5073305;28;20048;-61
2021/12/16 04:38:49;;;;;;;8.85;3.85;;;14.30;99.90;;;;;;5073695;28;20402;-61
2021/12/16 04:41:15;;;;;;;7.63;3.92;;;14.40;99.90;;;;;;5072985;28;20505;-61
2021/12/16 04:43:44;;;;;;;11.75;5.18;;;14.50;99.90;;;;;;5073646;28;20170;-61
2021/12/16 04:46:12;;;;;;;8.35;4.20;;;14.50;99.90;;;;;;5072972;28;20044;-61
2021/12/16 04:48:42;;;;;;;9.18;3.83;;;14.60;99.90;;;;;;5073354;28;20099;-61
2021/12/16 04:51:08;;;;;;;10.02;4.38;;;14.40;99.90;;;;;;5072637;28;20051;-61
2021/12/16 04:53:34;;;;;;;10.32;4.18;;;14.70;99.90;;;;;;5071900;28;20071;-61
2021/12/16 04:56:00;;;;;;;7.78;4.07;;;14.40;99.90;;;;;;5072707;28;20483;-62
2021/12/16 04:58:26;;;;;;;8.65;4.32;;;14.70;99.90;;;;;;5055233;28;20051;-61
2021/12/16 05:00:52;;;;;;;8.10;3.92;;;14.60;99.90;;;;;;5072107;28;20124;-60
2021/12/16 05:03:18;;;;;;;10.00;3.90;;;;;;;;;;5055669;28;20040;-62
2021/12/16 05:05:43;;;;;;;6.93;4.03;;;14.40;99.90;;;;;;5071091;28;20171;-61
2021/12/16 05:08:09;;;;;;;8.07;3.80;;;14.40;99.90;;;;;;5054493;28;20132;-62
2021/12/16 05:10:35;;;;;;;8.25;3.90;;;14.50;99.90;;;;;;5073028;28;20036;-61
2021/12/16 05:13:03;;;;;;;8.25;3.92;;;14.40;99.90;;;;;;5072976;28;20107;-60
2021/12/16 05:15:32;;;;;;;9.70;4.30;;;14.40;99.90;;;;;;5072447;28;20037;-61
2021/12/16 05:18:00;;;;;;;7.65;3.78;;;14.40;99.90;;;;;;5053953;28;20053;-61
2021/12/16 05:20:31;;;;;;;9.80;3.75;;;14.30;99.90;;;;;;5072839;28;20116;-61
2021/12/16 05:28:17;;;;;;;8.25;4.07;;;14.40;99.90;;;;;;5071919;28;20131;-61
2021/12/16 05:30:42;;;;;;;8.82;4.43;;;14.10;99.90;;;;;;5072774;28;20040;-61
2021/12/16 05:33:08;;;;;;;9.18;4.18;;;14.30;99.90;;;;;;5072543;28;20124;-61
2021/12/16 05:35:34;;;;;;;10.85;4.32;;;14.40;99.90;;;;;;5072544;28;20548;-61
2021/12/16 05:38:01;;;;;;;8.25;3.67;;;;;;;;;;5051160;28;20052;-61
2021/12/16 05:40:27;;;;;;;8.07;3.75;;;;;;;;;;5068959;28;20093;-64
2021/12/16 05:42:54;;;;;;;10.07;4.13;;;14.60;99.90;;;;;;5072701;28;20101;-61
2021/12/16 05:45:21;;;;;;;9.20;4.10;;;14.50;99.90;;;;;;5055145;28;20053;-61
2021/12/16 05:47:46;;;;;;;8.50;3.67;;;14.50;99.90;;;;;;5076333;28;20492;-62
2021/12/16 05:50:12;;;;;;;10.63;4.10;;;14.30;99.90;;;;;;5074696;28;20082;-61
2021/12/16 05:52:38;;;;;;;9.95;4.05;;;14.30;99.90;;;;;;5076972;28;20119;-62
2021/12/16 05:55:05;;;;;;;8.82;3.67;;;14.40;99.90;;;;;;5075648;28;20063;-62
2021/12/16 05:57:31;;;;;;;8.90;3.97;;;14.50;99.90;;;;;;5061037;28;20041;-62
2021/12/16 05:59:57;;;;;;;10.18;4.35;;;;;;;;;;5076691;28;20383;-65
2021/12/16 06:02:23;;;;;;;8.02;3.97;;;14.30;99.90;;;;;;5056825;28;20456;-62
2021/12/16 06:04:50;;;;;;;8.75;3.97;;;14.50;99.90;;;;;;5057659;28;20041;-62
2021/12/16 06:07:20;;;;;;;7.68;4.15;;;14.60;99.90;;;;;;5071288;28;20119;-62
2021/12/16 06:09:46;;;;;;;8.95;3.70;;;14.40;99.90;;;;;;5076739;28;20132;-62
2021/12/16 06:12:12;;;;;;;11.07;4.05;;;14.40;99.90;;;;;;5057003;28;20068;-62
2021/12/16 06:14:49;;;;;;;6.65;3.40;;;14.60;99.90;;;;;;5056838;28;20049;-62
2021/12/16 06:28:06;;;;;;;8.57;4.00;;;14.60;99.90;;;;;;5076025;28;20099;-61
2021/12/16 06:30:37;;;;;;;13.10;3.92;;;14.10;99.90;;;;;;5075885;28;20048;-60
2021/12/16 06:33:04;;;;;;;7.65;3.58;;;14.60;99.90;;;;;;5067101;28;20068;-61
2021/12/16 06:35:30;;;;;;;9.52;4.53;;;13.80;99.90;;;;;;5061826;28;20388;-61
2021/12/16 06:37:55;;;;;;;8.43;3.55;;;14.60;99.90;;;;;;5066096;28;20044;-61
2021/12/16 06:40:22;;;;;;;8.55;3.60;;;;;;;;;;5058637;28;20052;-63
2021/12/16 06:42:49;;;;;;;6.25;3.38;;;14.50;99.90;;;;;;5056714;28;20044;-62
2021/12/16 06:45:21;;;;;;;7.07;3.30;;;14.50;99.90;;;;;;5060513;28;20455;-61
2021/12/16 06:47:53;;;;;;;6.87;3.57;;;14.40;99.90;;;;;;5060050;28;20037;-65
2021/12/16 06:53:27;;;;;;;8.95;3.35;;;14.40;99.90;;;;;;4994572;28;20085;-65
2021/12/16 06:58:36;;;;;;;9.02;3.50;;;14.50;99.90;;;;;;4993523;28;20054;-65
2021/12/16 07:01:19;;;;;;;9.02;3.83;;;14.50;99.90;;;;;;4977808;28;20061;-65
2021/12/16 07:03:48;;;;;;;6.90;3.17;;;14.50;99.90;;;;;;4993426;28;20061;-65
2021/12/16 07:06:28;;;;;;;9.63;3.88;;;;;;;;;;4990007;28;20121;-65
2021/12/16 07:08:58;;;;;;;10.02;4.15;;;14.60;99.90;;;;;;4991938;28;20066;-62
2021/12/16 07:11:24;;;;;;;9.13;3.92;;;14.40;99.90;;;;;;4993927;28;20484;-63
2021/12/16 07:13:58;;;;;;;11.05;4.20;;;14.30;99.90;;;;;;4993947;28;20052;-61
2021/12/16 07:16:25;;;;;;;8.80;4.07;;;14.40;99.90;;;;;;4993654;28;20416;-62
2021/12/16 07:18:51;;;;;;;9.93;3.83;;;14.10;99.90;;;;;;4994182;28;20089;-65
2021/12/16 07:21:17;;;;;;;8.57;4.30;;;14.10;99.90;;;;;;4977624;28;20038;-61
2021/12/16 07:23:43;;;;;;;10.23;4.03;;;14.40;99.90;;;;;;4993499;28;20049;-61
2021/12/16 07:26:08;;;;;;;8.90;3.88;;;14.60;99.90;;;;;;4993512;28;20049;-61
2021/12/16 07:28:34;;;;;;;8.90;3.85;;;14.30;99.90;;;;;;5008473;28;20107;-62
2021/12/16 07:31:00;;;;;;;7.53;3.95;;;14.40;99.90;;;;;;5031244;28;20033;-62
2021/12/16 07:33:26;;;;;;;10.55;4.50;;;14.20;99.90;;;;;;5055104;28;20037;-61
2021/12/16 07:35:52;;;;;;;9.50;4.00;;;14.40;99.90;;;;;;5052204;28;20044;-62
2021/12/16 07:38:18;;;;;;;9.25;4.40;;;14.40;99.90;;;;;;5052668;28;20398;-63
2021/12/16 07:40:45;;;;;;;8.38;3.95;;;14.50;99.90;;;;;;5054482;28;20120;-62
2021/12/16 07:43:23;;;;;;;9.95;4.40;;;14.50;99.90;;;;;;5054504;28;20064;-62
2021/12/16 07:45:49;;;;;;;10.10;4.18;;;14.50;99.90;;;;;;5051632;28;20402;-61
2021/12/16 07:48:15;;;;;;;10.77;4.72;;;14.40;99.90;;;;;;5054714;28;20380;-64
2021/12/16 07:50:43;;;;;;;8.80;4.07;;;14.30;99.90;;;;;;5035295;28;20123;-64
2021/12/16 07:53:09;;;;;;;12.75;4.60;;;14.40;99.90;;;;;;5053177;28;20052;-62
2021/12/16 07:55:35;;;;;;;10.20;5.03;;;;;;;;;;5071145;28;20048;-64
2021/12/16 07:58:03;;;;;;;9.07;4.03;;;14.50;99.90;;;;;;5074127;28;20053;-64
2021/12/16 08:00:32;;;;;;;10.75;4.53;;;14.30;99.90;;;;;;5056289;28;20402;-64
2021/12/16 08:02:58;;;;;;;10.10;4.55;;;14.50;99.90;;;;;;5056997;28;20052;-64
2021/12/16 08:05:24;;;;;;;9.02;4.18;;;14.50;99.90;;;;;;5054498;28;20430;-63
2021/12/16 08:07:51;;;;;;;8.70;3.90;;;;;;;;;;5066545;28;20071;-63
2021/12/16 08:10:18;;;;;;;11.25;4.47;;;14.50;99.90;;;;;;5073095;28;20044;-63
2021/12/16 08:12:44;;;;;;;10.65;4.28;;;14.70;99.90;;;;;;5072903;28;20482;-62
2021/12/16 08:15:10;;;;;;;8.98;4.47;;;14.40;99.90;;;;;;5073731;28;20040;-63
2021/12/16 08:17:36;;;;;;;10.05;4.30;;;14.50;99.90;;;;;;5067725;28;20141;-61
2021/12/16 08:20:04;;;;;;;10.48;4.85;;;;;;;;;;5063781;28;20465;-61
2021/12/16 08:22:30;;;;;;;9.43;4.13;;;14.50;99.90;;;;;;5073186;28;20052;-63
2021/12/16 08:24:56;;;;;;;11.80;4.57;;;14.50;99.90;;;;;;5074373;28;20037;-62
2021/12/16 08:27:21;;;;;;;8.27;4.47;;;14.40;99.90;;;;;;5071562;28;20094;-62
2021/12/16 08:29:47;;;;;;;8.30;4.07;;;14.50;99.90;;;;;;5074290;28;20056;-62
2021/12/16 08:32:13;;;;;;;12.15;4.88;;;14.50;99.90;;;;;;5071639;28;20071;-63
2021/12/16 08:34:39;;;;;;;11.38;4.40;;;14.40;99.90;;;;;;5071594;28;20036;-61
2021/12/16 08:37:06;;;;;;;9.25;4.75;;;14.30;99.90;;;;;;5071215;28;20401;-61
2021/12/16 08:39:33;;;;;;;9.40;4.25;;;14.40;99.90;;;;;;5043392;28;20479;-62
2021/12/16 08:41:59;;;;;;;10.25;4.18;;;14.40;99.90;;;;;;5054152;28;20052;-61
2021/12/16 08:44:25;;;;;;;8.27;3.85;;;14.60;99.90;;;;;;5058306;28;20044;-62
2021/12/16 08:46:53;;;;;;;12.90;4.72;;;14.70;99.90;;;;;;5053377;28;20111;-61
2021/12/16 08:49:18;;;;;;;8.45;4.72;;;14.50;99.90;;;;;;5072877;28;20128;-63
2021/12/16 08:51:48;;;;;;;9.32;4.00;;;14.40;99.90;;;;;;5073075;28;20177;-61
2021/12/16 08:54:15;;;;;;;10.52;3.92;;;14.80;99.90;;;;;;5073493;28;20057;-60
2021/12/16 08:56:42;;;;;;;11.10;4.70;;;14.30;99.90;;;;;;5072334;28;20127;-61
2021/12/16 08:59:08;;;;;;;10.07;4.57;;;14.60;99.90;;;;;;5072791;28;20047;-61
2021/12/16 09:01:38;;;;;;;11.00;4.63;;;14.40;99.90;;;;;;5073482;28;20054;-61
2021/12/16 09:04:04;;;;;;;9.20;4.45;;;14.60;99.90;;;;;;5072831;28;20036;-61
2021/12/16 09:06:30;;;;;;;10.60;4.38;;;14.20;99.90;;;;;;5073365;28;20119;-61
2021/12/16 09:08:56;;;;;;;10.32;4.30;;;;;;;;;;5070814;28;20040;-62
2021/12/16 09:11:24;;;;;;;11.38;4.55;;;14.50;99.90;;;;;;5071933;28;20071;-61
2021/12/16 09:13:52;;;;;;;11.27;4.85;;;14.50;99.90;;;;;;5072165;28;20048;-63
2021/12/16 09:16:19;;;;;;;11.50;4.60;;;14.30;99.90;;;;;;5072118;28;20056;-62
2021/12/16 09:18:45;;;;;;;12.55;5.07;;;;;;;;;;5070920;28;20040;-65
2021/12/16 09:21:13;;;;;;;13.80;5.22;;;14.70;99.90;;;;;;5072422;28;20044;-61
2021/12/16 09:23:40;;;;;;;14.82;5.25;;;14.50;99.90;;;;;;5056032;28;20431;-69
2021/12/16 09:26:06;;;;;;;13.65;5.03;;;14.70;99.90;;;;;;5072187;28;20120;-62
2021/12/16 09:28:32;;;;;;;11.52;4.75;;;14.50;99.90;;;;;;5071054;28;20363;-61
2021/12/16 09:30:58;;;;;;;11.20;5.05;;;14.80;99.90;;;;;;5071021;28;20039;-61
2021/12/16 09:33:25;;;;;;;14.45;5.68;;;14.80;99.90;;;;;;5072093;28;20052;-66
2021/12/16 09:35:54;;;;;;;11.15;4.70;;;14.80;99.90;;;;;;5072007;28;20048;-65
2021/12/16 09:38:20;;;;;;;15.05;4.95;;;14.80;99.90;;;;;;5072682;28;20044;-61
2021/12/16 09:40:50;;;;;;;13.98;5.18;;;14.70;99.90;;;;;;5073444;28;20089;-61
2021/12/16 09:43:25;;;;;;;14.20;5.03;;;14.80;99.90;;;;;;5070998;28;20040;-64
2021/12/16 09:45:54;;;;;;;14.10;5.28;;;14.40;99.90;;;;;;5073430;28;20037;-61
2021/12/16 09:48:20;;;;;;;13.90;4.85;;;;;;;;;;5070777;28;20063;-62
2021/12/16 09:50:47;;;;;;;13.38;5.20;;;;;;;;;;5052602;28;20048;-61
2021/12/16 09:53:13;;;;;;;17.13;4.75;;;14.50;99.90;;;;;;5064835;28;20048;-65
2021/12/16 09:55:39;;;;;;;19.20;5.32;;;14.80;99.90;;;;;;5062768;28;20085;-62
2021/12/16 09:58:05;;;;;;;13.95;5.90;;;14.90;99.90;;;;;;5053053;28;20053;-61
2021/12/16 10:00:31;;;;;;;16.27;5.00;;;14.90;99.90;;;;;;5052170;28;20045;-62
2021/12/16 10:02:58;;;;;;;16.30;5.90;;;14.80;99.90;;;;;;5053073;28;20033;-63
2021/12/16 10:05:24;;;;;;;14.80;5.05;;;;;;;;;;5059506;28;20402;-62
2021/12/16 10:07:50;;;;;;;16.70;5.78;;;15.10;99.90;;;;;;5052615;28;20087;-62
2021/12/16 10:10:20;;;;;;;17.02;5.28;;;15.00;99.90;;;;;;5055686;28;20041;-61
2021/12/16 10:12:50;;;;;;;12.63;4.95;;;14.80;99.90;;;;;;5051378;28;20123;-62
2021/12/16 10:18:00;;;;;;;18.77;6.40;;;14.90;99.90;;;;;;5054191;28;20132;-66
2021/12/16 10:20:29;;;;;;;14.43;5.50;;;14.90;99.90;;;;;;5055015;28;20390;-66
2021/12/16 10:23:12;;;;;;;12.27;5.13;;;14.90;99.90;;;;;;5058887;28;20110;-66
2021/12/16 10:25:54;;;;;;;16.65;5.45;;;14.90;99.90;;;;;;5055277;28;20384;-65
2021/12/16 10:28:25;;;;;;;14.32;5.03;;;14.90;99.90;;;;;;5059595;28;20080;-66
2021/12/16 10:31:02;;;;;;;15.15;5.20;;;15.00;99.90;;;;;;5064412;28;20048;-66
2021/12/16 10:33:27;;;;;;;15.45;5.15;;;15.00;99.90;;;;;;5055549;28;20057;-62
2021/12/16 10:35:58;;;;;;;16.92;6.30;;;;;;;;;;5053717;28;20037;-65
2021/12/16 10:38:25;;;;;;;22.63;8.70;;;15.00;99.90;;;;;;5050890;28;20380;-62
2021/12/16 10:40:55;;;;;;;20.02;8.35;;;15.20;99.90;;;;;;5056182;28;20120;-62
2021/12/16 10:43:41;;;;;;;22.25;7.30;;;15.00;99.90;;;;;;5055125;28;20041;-63
2021/12/16 10:46:32;;;;;;;18.85;7.40;;;15.10;99.90;;;;;;5056126;28;20128;-62
2021/12/16 10:49:01;;;;;;;19.10;7.47;;;15.00;99.90;;;;;;5049476;28;20380;-62
2021/12/16 10:51:31;;;;;;;14.35;7.10;;;15.10;99.90;;;;;;5049087;28;20394;-62
2021/12/16 10:54:02;;;;;;;20.27;7.90;;;14.90;99.90;;;;;;5059583;28;20057;-62
2021/12/16 10:56:35;;;;;;;20.60;8.00;;;15.30;99.90;;;;;;5075092;28;20053;-61
2021/12/16 10:59:06;;;;;;;19.33;7.25;;;15.30;99.90;;;;;;5074801;28;20131;-61
2021/12/16 11:01:53;;;;;;;19.85;7.97;;;14.90;99.90;;;;;;5076099;28;20044;-61
2021/12/16 11:04:23;;;;;;;16.50;6.80;;;15.20;99.90;;;;;;5090558;28;20040;-62
2021/12/16 11:06:57;;;;;;;21.48;8.30;;;15.10;99.90;;;;;;5095987;28;20052;-61
2021/12/16 11:09:32;;;;;;;15.02;7.75;;;15.20;99.90;;;;;;5072432;28;20062;-61
2021/12/16 11:12:11;;;;;;;18.90;7.05;;;15.20;99.90;;;;;;5088771;28;20040;-61
2021/12/16 11:14:39;;;;;;;19.17;7.38;;;15.10;99.90;;;;;;5075951;28;20098;-61
2021/12/16 11:17:08;;;;;;;17.60;7.25;;;14.90;99.90;;;;;;5079760;28;20154;-61
2021/12/16 11:19:47;;;;;;;19.80;7.28;;;15.10;99.90;;;;;;5096083;28;20436;-61
2021/12/16 11:22:15;;;;;;;17.17;7.10;;;15.00;99.90;;;;;;5089375;28;20044;-61
2021/12/16 11:24:41;;;;;;;18.05;7.43;;;15.00;99.90;;;;;;5086348;28;20388;-61
2021/12/16 11:27:26;;;;;;;20.42;6.72;;;15.10;99.90;;;;;;5089675;28;20139;-61
2021/12/16 11:29:52;;;;;;;17.88;7.10;;;;;;;;;;5073825;28;20516;-65
2021/12/16 11:32:54;;;;;;;15.52;7.72;;;15.00;99.90;;;;;;5095432;28;20031;-61
2021/12/16 11:35:49;;;;;;;15.95;7.35;;;15.10;99.90;;;;;;5032776;28;20514;-65
2021/12/16 11:38:27;;;;;;;17.15;8.18;;;15.20;99.90;;;;;;5035803;28;20110;-66
2021/12/16 11:40:54;;;;;;;14.77;6.90;;;15.20;99.90;;;;;;5046726;28;20064;-66
2021/12/16 11:43:30;;;;;;;17.02;7.78;;;;;;;;;;5022169;28;20050;-65
2021/12/16 11:45:56;;;;;;;16.38;6.63;;;15.20;99.90;;;;;;5050937;28;20060;-66
2021/12/16 11:48:30;;;;;;;15.52;7.00;;;15.20;99.90;;;;;;5032865;28;20057;-62
2021/12/16 11:51:07;;;;;;;14.52;6.90;;;15.00;99.90;;;;;;5016112;28;20507;-63
2021/12/16 11:53:44;;;;;;;14.35;6.80;;;15.10;99.90;;;;;;5032889;28;20053;-61
2021/12/16 11:56:11;;;;;;;12.60;6.95;;;15.20;99.90;;;;;;5011985;28;20085;-62
2021/12/16 11:58:42;;;;;;;13.65;6.55;;;14.90;99.90;;;;;;5013438;28;20050;-63
2021/12/16 12:01:26;;;;;;;15.73;6.35;;;15.10;99.90;;;;;;5014161;28;20602;-61
2021/12/16 12:03:52;;;;;;;13.68;6.53;;;14.90;99.90;;;;;;5015720;28;20065;-61
2021/12/16 12:06:23;;;;;;;14.98;7.18;;;15.10;99.90;;;;;;5018488;28;20038;-62
2021/12/16 12:08:49;;;;;;;14.95;7.80;;;15.20;99.90;;;;;;5025743;28;20127;-62
2021/12/16 12:11:21;;;;;;;17.60;7.15;;;15.20;99.90;;;;;;5047501;28;20041;-63
2021/12/16 12:13:54;;;;;;;12.53;6.80;;;15.10;99.90;;;;;;5053649;28;20392;-61
2021/12/16 12:16:31;;;;;;;14.00;6.85;;;15.40;99.90;;;;;;5067355;28;20123;-62
2021/12/16 12:18:59;;;;;;;13.20;6.63;;;15.50;99.90;;;;;;5067536;28;20124;-66
2021/12/16 12:21:44;;;;;;;13.57;6.68;;;15.40;99.90;;;;;;5068586;28;20446;-66
2021/12/16 12:24:14;;;;;;;12.23;5.93;;;15.30;99.90;;;;;;5074491;28;20126;-66
2021/12/16 12:26:54;;;;;;;13.63;6.97;;;15.30;99.90;;;;;;5073232;28;20040;-66
2021/12/16 12:29:27;;;;;;;12.05;6.55;;;15.20;99.90;;;;;;5072947;28;20486;-61
2021/12/16 12:31:54;;;;;;;;;;;15.50;99.90;;;;;;5072501;28;20486;-61
2021/12/16 12:34:20;;;;;;;11.32;6.07;;;15.20;99.90;;;;;;5074503;28;19928;-63
2021/12/16 12:36:48;;;;;;;11.60;6.53;;;;;;;;;;5072252;28;20036;-62
2021/12/16 12:39:17;;;;;;;11.45;5.95;;;15.20;99.90;;;;;;5071579;28;20055;-64
2021/12/16 12:41:44;;;;;;;11.23;6.47;;;15.30;99.90;;;;;;5074179;28;20047;-65
2021/12/16 12:44:10;;;;;;;12.82;7.07;;;15.20;99.90;;;;;;5073575;28;20041;-65
2021/12/16 12:46:38;;;;;;;11.00;5.38;;;15.20;99.90;;;;;;5074131;28;20040;-62
2021/12/16 12:49:06;;;;;;;12.15;6.35;;;15.20;99.90;;;;;;5071257;28;20051;-63
2021/12/16 12:51:42;;;;;;;11.38;6.20;;;15.40;99.90;;;;;;5054763;28;20052;-67
2021/12/16 12:54:34;;;;;;;10.88;6.82;;;15.30;99.90;;;;;;5073301;28;20062;-62
2021/12/16 12:57:17;;;;;;;10.20;6.25;;;15.40;99.90;;;;;;5066282;28;20094;-65
2021/12/16 12:59:42;;;;;;;10.70;5.88;;;15.00;99.90;;;;;;5054389;28;20061;-65
2021/12/16 13:02:19;;;;;;;10.80;6.20;;;15.30;99.90;;;;;;5072213;28;20040;-66
2021/12/16 13:05:17;;;;;;;11.75;6.20;;;15.30;99.90;;;;;;5073521;28;20036;-65
2021/12/16 13:07:44;;;;;;;12.85;6.93;;;15.30;99.90;;;;;;5053883;28;20053;-65
2021/12/16 13:10:22;;;;;;;12.32;6.85;;;15.40;99.90;;;;;;5064631;28;20056;-62
2021/12/16 13:13:15;;;;;;;11.88;6.57;;;15.20;99.80;;;;;;5072460;28;20453;-62
2021/12/16 13:26:44;;;;;;;12.05;6.93;;;15.50;99.90;;;;;;5009024;28;20073;-65
2021/12/16 13:29:17;;;;;;;10.95;6.50;;;;;;;;;;5010264;28;20176;-65
2021/12/16 13:31:51;;;;;;;;;;;;;;;;;;4995811;28;20394;-64
2021/12/16 13:34:48;;;;;;;11.07;7.00;;;15.20;99.90;;;;;;5008106;28;20338;-64
2021/12/16 13:37:23;;;;;;;12.07;7.13;;;15.50;99.90;;;;;;5010849;28;20061;-65
2021/12/16 13:39:55;;;;;;;14.55;7.45;;;15.30;99.90;;;;;;5011243;28;20145;-61
2021/12/16 13:42:21;;;;;;;12.70;7.32;;;15.30;99.90;;;;;;5010137;28;20042;-61
2021/12/16 13:44:57;;;;;;;10.50;6.93;;;15.50;99.90;;;;;;4990196;28;20077;-61
2021/12/16 13:47:41;;;;;;;12.18;6.60;;;15.50;99.90;;;;;;4991714;28;20050;-61
2021/12/16 14:04:39;;;;;;;12.63;6.85;;;15.60;99.90;;;;;;5051708;28;20067;-61
2021/12/16 14:10:14;;;;;;;12.98;7.38;;;15.40;99.90;;;;;;5064709;28;20044;-61
2021/12/16 14:25:08;;;;;;;13.38;7.43;;;15.50;99.90;;;;;;5076638;28;20059;-61
2021/12/16 14:41:25;;;;;;;10.25;6.22;;;15.00;99.90;;;;;;5074810;28;20048;-62
2021/12/16 14:47:10;;;;;;;12.18;7.05;;;15.60;99.90;;;;;;5074234;28;20079;-62
2021/12/16 14:49:42;;;;;;;11.38;6.70;;;15.50;99.90;;;;;;5076262;28;20045;-61
2021/12/16 14:52:16;;;;;;;11.85;6.90;;;15.50;99.90;;;;;;5074230;28;20390;-62
2021/12/16 14:54:47;;;;;;;12.40;6.78;;;15.30;99.90;;;;;;5075788;28;20067;-62
2021/12/16 14:57:12;;;;;;;12.88;6.90;;;15.40;99.90;;;;;;5073422;28;20071;-62
2021/12/16 14:59:39;;;;;;;13.13;6.95;;;;;;;;;;5076153;28;20478;-62
2021/12/16 15:02:04;;;;;;;14.75;7.22;;;15.00;99.90;;;;;;5075618;28;20379;-64
2021/12/16 15:04:31;;;;;;;16.33;7.57;;;15.40;99.90;;;;;;5074552;28;20101;-61
2021/12/16 15:07:02;;;;;;;14.25;7.88;;;15.00;99.90;;;;;;5073388;28;20090;-62
2021/12/16 15:09:30;;;;;;;15.70;7.82;;;15.10;99.90;;;;;;5058830;28;20437;-62
2021/12/16 15:12:03;;;;;;;14.80;8.00;;;15.30;99.90;;;;;;5058111;28;20442;-62
2021/12/16 15:39:55;;;;;;;14.90;7.03;;;15.50;99.90;;;;;;5010908;28;20069;-62
2021/12/16 15:45:12;;;;;;;16.23;7.47;;;15.40;99.90;;;;;;5013330;28;20050;-62
2021/12/16 15:47:42;;;;;;;13.32;7.10;;;15.60;99.90;;;;;;5012534;28;20104;-62
2021/12/16 15:50:09;;;;;;;15.60;7.70;;;15.40;99.90;;;;;;5012234;28;20104;-63
2021/12/16 15:52:43;;;;;;;14.35;7.32;;;15.40;99.90;;;;;;5012165;28;20542;-63
2021/12/16 15:55:15;;;;;;;15.95;7.60;;;15.40;99.90;;;;;;5012316;28;20066;-65
2021/12/16 15:57:40;;;;;;;21.25;8.00;;;15.30;99.90;;;;;;5013143;28;20106;-65
2021/12/16 16:00:09;;;;;;;16.27;7.70;;;15.30;99.90;;;;;;5069969;28;20041;-65
2021/12/16 16:02:35;;;;;;;15.32;7.65;;;15.60;99.90;;;;;;5074883;28;20037;-66
2021/12/16 16:05:01;;;;;;;16.63;8.07;;;15.30;99.90;;;;;;5075409;28;20551;-66
2021/12/16 16:07:31;;;;;;;15.13;7.90;;;;;;;;;;5072753;28;20044;-61
2021/12/16 16:09:58;;;;;;;15.93;7.13;;;15.30;99.90;;;;;;5074854;28;20055;-62
2021/12/16 16:12:29;;;;;;;16.73;7.75;;;15.40;99.90;;;;;;5073762;28;20433;-62
2021/12/16 16:14:59;;;;;;;16.00;7.60;;;15.30;99.90;;;;;;5074744;28;20049;-64
2021/12/16 16:17:26;;;;;;;17.13;7.90;;;15.00;99.90;;;;;;5073474;28;20084;-62
2021/12/16 16:19:52;;;;;;;13.63;7.35;;;;;;;;;;5073923;28;20115;-62
2021/12/16 16:22:18;;;;;;;14.13;7.82;;;15.30;99.90;;;;;;5072188;28;20044;-62
2021/12/16 16:24:47;;;;;;;17.15;8.02;;;15.40;99.90;;;;;;5073248;28;20040;-62
2021/12/16 16:27:27;;;;;;;19.17;8.63;;;15.40;99.90;;;;;;5071681;28;20044;-62
2021/12/16 16:29:56;;;;;;;13.75;7.70;;;15.10;99.90;;;;;;5072923;28;20059;-63
2021/12/16 16:32:23;;;;;;;16.17;7.80;;;14.80;99.90;;;;;;5073112;28;20171;-64
2021/12/16 16:34:51;;;;;;;14.73;8.43;;;15.20;99.90;;;;;;5074225;28;20055;-61
2021/12/16 16:37:34;;;;;;;18.02;8.77;;;15.10;99.90;;;;;;5067424;28;20110;-65
2021/12/16 16:40:08;;;;;;;13.20;8.02;;;15.00;99.90;;;;;;5036206;28;20041;-65
2021/12/16 16:42:37;;;;;;;15.43;7.80;;;15.20;99.90;;;;;;5071139;28;20044;-65
2021/12/16 16:45:03;;;;;;;14.98;8.55;;;15.20;99.90;;;;;;5074166;28;20041;-66
2021/12/16 16:47:46;;;;;;;13.98;8.05;;;15.20;99.90;;;;;;5072040;28;20051;-65
2021/12/16 16:50:12;;;;;;;16.98;7.85;;;15.10;99.90;;;;;;5073770;28;20048;-62
2021/12/16 16:52:40;;;;;;;13.45;8.02;;;15.00;99.90;;;;;;5072323;28;20043;-61
2021/12/16 16:55:13;;;;;;;16.10;8.60;;;15.10;99.90;;;;;;5072768;28;20056;-61
2021/12/16 16:58:09;;;;;;;14.50;7.95;;;15.10;99.90;;;;;;5072364;28;20076;-61
2021/12/16 17:00:41;;;;;;;14.35;8.35;;;15.20;99.90;;;;;;5059334;28;20402;-65
2021/12/16 17:03:09;;;;;;;15.25;8.35;;;15.30;99.90;;;;;;5067802;28;20490;-65
2021/12/16 17:05:47;;;;;;;14.40;8.25;;;15.00;99.90;;;;;;5073840;28;20070;-65
2021/12/16 17:08:15;;;;;;;13.77;8.32;;;15.20;99.90;;;;;;5072655;28;20371;-63